createdAt,value
2018-03-08T00:00:26.078Z,86.58
2018-03-08T00:01:26.228Z,86.58
2018-03-08T00:02:26.382Z,86.49
2018-03-08T00:03:26.534Z,86.11
2018-03-08T00:04:26.684Z,86.96
2018-03-08T00:05:26.833Z,87.39
2018-03-08T00:06:26.988Z,86.77
2018-03-08T00:07:27.135Z,87.24
2018-03-08T00:08:27.288Z,86.96
2018-03-08T00:09:27.436Z,86.72
2018-03-08T00:10:27.588Z,87.43
2018-03-08T00:11:27.737Z,87.30
2018-03-08T00:12:27.891Z,87.24
2018-03-08T00:13:28.038Z,86.44
2018-03-08T00:14:28.194Z,86.54
2018-03-08T00:15:28.341Z,86.35
2018-03-08T00:16:28.505Z,86.91
2018-03-08T00:17:28.644Z,86.16
2018-03-08T00:18:28.798Z,86.44
2018-03-08T00:19:28.942Z,86.35
2018-03-08T00:20:29.103Z,86.44
2018-03-08T00:21:29.242Z,86.58
2018-03-08T00:22:29.390Z,86.39
2018-03-08T00:23:29.544Z,86.20
2018-03-08T00:24:29.952Z,86.68
2018-03-08T00:25:29.844Z,86.30
2018-03-08T00:26:29.993Z,86.35
2018-03-08T00:28:30.286Z,85.91
2018-03-08T00:29:30.440Z,85.72
2018-03-08T00:30:30.588Z,85.91
2018-03-08T00:31:30.742Z,85.91
2018-03-08T00:32:30.891Z,85.82
2018-03-08T00:33:31.045Z,85.72
2018-03-08T00:34:31.193Z,85.25
2018-03-08T00:35:31.381Z,85.06
2018-03-08T00:36:31.497Z,85.44
2018-03-08T00:37:31.646Z,85.35
2018-03-08T00:38:31.800Z,84.97
2018-03-08T00:39:31.948Z,84.97
2018-03-08T00:40:32.099Z,85.06
2018-03-08T00:41:32.254Z,84.87
2018-03-08T00:42:32.402Z,85.25
2018-03-08T00:43:32.552Z,85.25
2018-03-08T00:44:32.711Z,85.06
2018-03-08T00:45:32.854Z,84.68
2018-03-08T00:46:33.000Z,84.78
2018-03-08T00:47:33.153Z,84.92
2018-03-08T00:48:33.317Z,85.49
2018-03-08T00:49:33.457Z,85.44
2018-03-08T00:50:33.606Z,84.78
2018-03-08T00:51:33.768Z,84.87
2018-03-08T00:52:33.905Z,85.25
2018-03-08T00:53:34.055Z,84.97
2018-03-08T00:54:34.210Z,84.78
2018-03-08T00:55:34.363Z,84.40
2018-03-08T00:56:34.510Z,84.92
2018-03-08T00:57:34.664Z,84.83
2018-03-08T00:58:34.814Z,84.92
2018-03-08T00:59:34.963Z,85.25
2018-03-08T01:00:35.123Z,84.97
2018-03-08T01:01:35.266Z,85.16
2018-03-08T01:02:35.420Z,84.68
2018-03-08T01:03:35.573Z,85.06
2018-03-08T01:04:35.975Z,85.16
2018-03-08T01:05:35.872Z,84.49
2018-03-08T01:06:36.020Z,84.07
2018-03-08T01:07:36.173Z,84.45
2018-03-08T01:08:36.325Z,84.07
2018-03-08T01:09:36.471Z,85.11
2018-03-08T01:10:36.620Z,84.26
2018-03-08T01:11:36.771Z,84.01
2018-03-08T01:12:36.923Z,83.92
2018-03-08T01:13:37.076Z,84.21
2018-03-08T01:14:37.226Z,84.07
2018-03-08T01:15:37.374Z,84.36
2018-03-08T01:16:37.524Z,84.64
2018-03-08T01:17:37.676Z,84.49
2018-03-08T01:18:37.837Z,84.36
2018-03-08T01:19:37.981Z,84.17
2018-03-08T01:20:38.134Z,83.88
2018-03-08T01:21:38.283Z,83.40
2018-03-08T01:22:38.435Z,83.36
2018-03-08T01:23:38.589Z,82.40
2018-03-08T01:24:38.751Z,83.07
2018-03-08T01:25:38.887Z,82.50
2018-03-08T01:26:39.036Z,81.93
2018-03-08T01:27:39.195Z,82.12
2018-03-08T01:28:39.335Z,81.55
2018-03-08T01:29:39.488Z,81.26
2018-03-08T01:30:39.641Z,80.88
2018-03-08T01:31:39.789Z,80.88
2018-03-08T01:32:39.938Z,80.51
2018-03-08T01:33:40.093Z,80.88
2018-03-08T01:34:40.250Z,80.69
2018-03-08T01:35:40.394Z,80.22
2018-03-08T01:36:40.541Z,80.22
2018-03-08T01:37:40.692Z,80.32
2018-03-08T01:38:40.845Z,80.13
2018-03-08T01:39:40.996Z,80.22
2018-03-08T01:40:41.148Z,80.88
2018-03-08T01:41:41.295Z,80.60
2018-03-08T01:42:41.444Z,81.26
2018-03-08T01:43:41.595Z,81.41
2018-03-08T01:44:41.753Z,81.93
2018-03-08T01:45:41.898Z,81.88
2018-03-08T01:46:42.046Z,81.88
2018-03-08T01:47:42.202Z,82.36
2018-03-08T01:48:42.350Z,82.84
2018-03-08T01:49:42.504Z,83.22
2018-03-08T01:50:42.653Z,83.50
2018-03-08T01:51:42.801Z,83.69
2018-03-08T01:52:42.952Z,84.07
2018-03-08T01:53:43.104Z,83.78
2018-03-08T01:54:43.252Z,83.97
2018-03-08T01:55:43.408Z,83.78
2018-03-08T01:56:43.556Z,83.97
2018-03-08T01:57:43.704Z,83.59
2018-03-08T01:58:43.853Z,84.17
2018-03-08T01:59:44.028Z,84.17
2018-03-08T02:00:44.151Z,84.36
2018-03-08T02:01:44.299Z,84.17
2018-03-08T02:03:44.590Z,84.55
2018-03-08T02:04:44.741Z,84.07
2018-03-08T02:05:44.894Z,85.02
2018-03-08T02:06:45.047Z,84.83
2018-03-08T02:07:45.192Z,85.02
2018-03-08T02:08:45.349Z,85.21
2018-03-08T02:09:45.492Z,85.02
2018-03-08T02:10:45.647Z,85.49
2018-03-08T02:11:45.792Z,85.40
2018-03-08T02:12:45.946Z,85.02
2018-03-08T02:13:46.095Z,84.83
2018-03-08T02:14:46.245Z,85.02
2018-03-08T02:15:46.394Z,85.02
2018-03-08T02:16:46.545Z,84.17
2018-03-08T02:17:46.697Z,84.26
2018-03-08T02:18:46.846Z,85.11
2018-03-08T02:19:46.997Z,83.78
2018-03-08T02:20:47.152Z,84.17
2018-03-08T02:21:47.298Z,84.45
2018-03-08T02:22:47.448Z,84.26
2018-03-08T02:23:47.605Z,84.17
2018-03-08T02:24:47.752Z,83.78
2018-03-08T02:25:47.902Z,83.78
2018-03-08T02:26:48.057Z,83.54
2018-03-08T02:27:48.201Z,83.26
2018-03-08T02:28:48.355Z,83.31
2018-03-08T02:29:48.500Z,82.69
2018-03-08T02:30:48.652Z,83.16
2018-03-08T02:31:48.803Z,83.31
2018-03-08T02:32:48.951Z,83.22
2018-03-08T02:33:49.098Z,83.50
2018-03-08T02:34:49.249Z,84.17
2018-03-08T02:35:49.401Z,83.88
2018-03-08T02:36:49.551Z,83.88
2018-03-08T02:37:49.705Z,84.26
2018-03-08T02:38:49.853Z,84.17
2018-03-08T02:39:50.008Z,84.26
2018-03-08T02:40:50.163Z,84.26
2018-03-08T02:41:50.315Z,83.78
2018-03-08T02:42:50.460Z,83.97
2018-03-08T02:43:50.618Z,83.31
2018-03-08T02:44:50.760Z,83.50
2018-03-08T02:45:50.920Z,83.31
2018-03-08T02:46:51.057Z,83.88
2018-03-08T02:47:51.208Z,83.78
2018-03-08T02:48:51.364Z,83.88
2018-03-08T02:49:51.512Z,83.22
2018-03-08T02:50:51.662Z,83.50
2018-03-08T02:51:51.816Z,83.12
2018-03-08T02:52:51.963Z,83.31
2018-03-08T02:53:52.121Z,82.84
2018-03-08T02:54:52.267Z,82.78
2018-03-08T02:55:52.416Z,82.55
2018-03-08T02:56:52.564Z,82.55
2018-03-08T02:57:52.721Z,82.69
2018-03-08T02:58:52.870Z,82.31
2018-03-08T02:59:53.020Z,81.98
2018-03-08T03:00:53.170Z,81.55
2018-03-08T03:01:53.318Z,81.55
2018-03-08T03:02:53.467Z,81.74
2018-03-08T03:03:53.623Z,82.03
2018-03-08T03:04:53.768Z,81.88
2018-03-08T03:05:53.921Z,82.21
2018-03-08T03:06:54.069Z,82.21
2018-03-08T03:07:54.220Z,81.65
2018-03-08T03:08:54.384Z,81.07
2018-03-08T03:09:54.573Z,81.65
2018-03-08T03:10:54.672Z,81.65
2018-03-08T03:11:54.820Z,81.74
2018-03-08T03:12:54.973Z,81.65
2018-03-08T03:13:55.123Z,81.65
2018-03-08T03:14:55.271Z,81.26
2018-03-08T03:15:55.425Z,81.55
2018-03-08T03:16:55.843Z,81.36
2018-03-08T03:17:55.720Z,81.65
2018-03-08T03:18:55.871Z,81.65
2018-03-08T03:20:56.166Z,82.12
2018-03-08T03:21:56.315Z,81.93
2018-03-08T03:22:56.776Z,81.88
2018-03-08T03:23:56.613Z,82.21
2018-03-08T03:24:56.769Z,82.40
2018-03-08T03:25:56.920Z,82.27
2018-03-08T03:26:57.071Z,82.93
2018-03-08T03:27:57.219Z,82.74
2018-03-08T03:28:57.374Z,82.84
2018-03-08T03:29:57.526Z,82.84
2018-03-08T03:30:57.673Z,83.22
2018-03-08T03:31:57.822Z,82.55
2018-03-08T03:32:57.974Z,82.55
2018-03-08T03:33:58.123Z,83.22
2018-03-08T03:34:58.275Z,82.93
2018-03-08T03:35:58.424Z,83.31
2018-03-08T03:36:58.576Z,82.93
2018-03-08T03:37:58.726Z,82.55
2018-03-08T03:38:58.877Z,83.22
2018-03-08T03:39:59.032Z,83.31
2018-03-08T03:40:59.179Z,82.93
2018-03-08T03:41:59.332Z,82.74
2018-03-08T03:42:59.482Z,82.55
2018-03-08T03:43:59.632Z,82.84
2018-03-08T03:44:59.791Z,82.46
2018-03-08T03:45:59.933Z,82.74
2018-03-08T03:47:00.085Z,82.74
2018-03-08T03:48:00.239Z,82.65
2018-03-08T03:49:00.391Z,83.50
2018-03-08T03:50:00.540Z,83.40
2018-03-08T03:51:00.687Z,83.03
2018-03-08T03:52:00.836Z,83.03
2018-03-08T03:53:00.987Z,83.22
2018-03-08T03:54:01.139Z,83.03
2018-03-08T03:55:01.293Z,82.65
2018-03-08T03:56:01.452Z,82.74
2018-03-08T03:57:01.591Z,82.74
2018-03-08T03:58:01.739Z,82.46
2018-03-08T03:59:01.892Z,82.55
2018-03-08T04:00:02.046Z,82.55
2018-03-08T04:01:02.191Z,82.65
2018-03-08T04:02:02.341Z,82.74
2018-03-08T04:03:02.498Z,83.31
2018-03-08T04:04:02.642Z,82.65
2018-03-08T04:05:02.793Z,82.55
2018-03-08T04:06:02.941Z,82.65
2018-03-08T04:07:03.091Z,82.55
2018-03-08T04:08:03.241Z,81.88
2018-03-08T04:09:03.394Z,82.17
2018-03-08T04:10:03.542Z,81.60
2018-03-08T04:11:03.693Z,81.60
2018-03-08T04:12:03.843Z,81.60
2018-03-08T04:13:03.992Z,81.70
2018-03-08T04:14:04.143Z,81.60
2018-03-08T04:15:04.294Z,81.51
2018-03-08T04:16:04.448Z,81.60
2018-03-08T04:17:04.598Z,81.32
2018-03-08T04:18:04.745Z,81.60
2018-03-08T04:19:04.898Z,82.08
2018-03-08T04:20:05.049Z,82.17
2018-03-08T04:21:05.197Z,82.46
2018-03-08T04:22:05.345Z,82.46
2018-03-08T04:23:05.500Z,82.17
2018-03-08T04:24:05.648Z,81.98
2018-03-08T04:25:05.802Z,81.60
2018-03-08T04:26:05.950Z,81.51
2018-03-08T04:27:06.105Z,81.41
2018-03-08T04:28:06.252Z,81.51
2018-03-08T04:29:06.403Z,80.94
2018-03-08T04:30:06.553Z,81.32
2018-03-08T04:31:06.710Z,81.13
2018-03-08T04:32:06.853Z,80.65
2018-03-08T04:33:07.005Z,80.75
2018-03-08T04:34:07.172Z,81.23
2018-03-08T04:35:07.304Z,80.84
2018-03-08T04:36:07.463Z,81.13
2018-03-08T04:37:07.605Z,80.84
2018-03-08T04:38:07.753Z,80.37
2018-03-08T04:39:07.905Z,80.65
2018-03-08T04:40:08.294Z,80.84
2018-03-08T04:41:08.207Z,81.04
2018-03-08T04:42:08.357Z,81.32
2018-03-08T04:43:08.511Z,80.75
2018-03-08T04:44:08.659Z,80.84
2018-03-08T04:45:08.813Z,80.84
2018-03-08T04:46:08.962Z,81.13
2018-03-08T04:47:09.117Z,80.94
2018-03-08T04:48:09.259Z,80.94
2018-03-08T04:49:09.411Z,81.32
2018-03-08T04:50:09.559Z,80.37
2018-03-08T04:51:09.711Z,80.75
2018-03-08T04:52:09.861Z,80.84
2018-03-08T04:53:10.013Z,80.94
2018-03-08T04:54:10.161Z,81.23
2018-03-08T04:55:10.557Z,81.04
2018-03-08T04:56:10.463Z,80.46
2018-03-08T04:57:10.613Z,80.27
2018-03-08T04:58:10.767Z,80.08
2018-03-08T04:59:10.916Z,79.90
2018-03-08T05:00:11.066Z,80.08
2018-03-08T05:01:11.217Z,80.08
2018-03-08T05:02:11.365Z,80.08
2018-03-08T05:03:11.517Z,80.94
2018-03-08T05:04:11.665Z,80.52
2018-03-08T05:05:11.817Z,80.99
2018-03-08T05:06:11.971Z,80.84
2018-03-08T05:07:12.117Z,80.56
2018-03-08T05:08:12.268Z,80.94
2018-03-08T05:09:12.419Z,80.75
2018-03-08T05:10:12.573Z,80.75
2018-03-08T05:11:12.721Z,80.27
2018-03-08T05:12:12.871Z,79.71
2018-03-08T05:13:13.020Z,80.08
2018-03-08T05:14:13.174Z,79.71
2018-03-08T05:15:13.322Z,79.71
2018-03-08T05:16:13.471Z,80.08
2018-03-08T05:17:13.624Z,80.08
2018-03-08T05:18:13.773Z,80.18
2018-03-08T05:19:13.925Z,80.27
2018-03-08T05:20:14.074Z,79.85
2018-03-08T05:21:14.226Z,80.14
2018-03-08T05:22:14.378Z,79.47
2018-03-08T05:23:14.935Z,79.95
2018-03-08T05:24:14.680Z,80.33
2018-03-08T05:25:14.828Z,80.14
2018-03-08T05:26:14.976Z,80.18
2018-03-08T05:27:15.127Z,79.99
2018-03-08T05:28:15.281Z,80.56
2018-03-08T05:29:15.435Z,79.80
2018-03-08T05:30:15.580Z,80.37
2018-03-08T05:31:15.730Z,80.27
2018-03-08T05:32:15.882Z,80.43
2018-03-08T05:33:16.031Z,79.95
2018-03-08T05:34:16.184Z,80.24
2018-03-08T05:35:16.345Z,80.04
2018-03-08T05:36:16.474Z,80.24
2018-03-08T05:37:16.633Z,80.14
2018-03-08T05:38:16.785Z,79.90
2018-03-08T05:39:16.927Z,79.66
2018-03-08T05:40:17.080Z,79.61
2018-03-08T05:41:17.230Z,79.80
2018-03-08T05:42:17.381Z,79.80
2018-03-08T05:43:17.533Z,79.71
2018-03-08T05:44:17.685Z,79.71
2018-03-08T05:45:17.843Z,79.52
2018-03-08T05:46:17.986Z,79.66
2018-03-08T05:47:18.132Z,79.61
2018-03-08T05:48:18.287Z,79.57
2018-03-08T05:49:18.436Z,79.14
2018-03-08T05:50:18.584Z,79.76
2018-03-08T05:51:18.745Z,79.52
2018-03-08T05:52:18.894Z,79.76
2018-03-08T05:53:19.040Z,79.76
2018-03-08T05:54:19.189Z,79.38
2018-03-08T05:55:19.343Z,79.38
2018-03-08T05:56:19.492Z,79.66
2018-03-08T05:57:19.641Z,79.04
2018-03-08T05:58:20.043Z,79.10
2018-03-08T05:59:19.943Z,78.47
2018-03-08T06:00:20.090Z,78.66
2018-03-08T06:01:20.241Z,78.66
2018-03-08T06:02:20.394Z,78.56
2018-03-08T06:03:20.540Z,78.75
2018-03-08T06:04:20.719Z,78.66
2018-03-08T06:05:20.840Z,78.56
2018-03-08T06:06:20.991Z,78.38
2018-03-08T06:07:21.188Z,78.56
2018-03-08T06:08:21.292Z,78.19
2018-03-08T06:09:21.442Z,77.52
2018-03-08T06:10:21.590Z,77.24
2018-03-08T06:11:21.742Z,77.24
2018-03-08T06:12:22.134Z,78.09
2018-03-08T06:15:11.110Z,78.81
2018-03-08T06:16:11.264Z,79.71
2018-03-08T06:17:11.417Z,79.42
2018-03-08T06:18:11.571Z,79.23
2018-03-08T06:19:11.728Z,78.56
2018-03-08T06:20:11.886Z,78.38
2018-03-08T06:21:12.031Z,78.75
2018-03-08T06:22:12.182Z,77.81
2018-03-08T06:23:12.329Z,77.52
2018-03-08T06:24:12.485Z,78.00
2018-03-08T06:25:12.631Z,78.09
2018-03-08T06:26:12.783Z,77.62
2018-03-08T06:27:12.930Z,76.67
2018-03-08T06:28:13.079Z,76.76
2018-03-08T06:29:13.231Z,77.14
2018-03-08T06:30:13.379Z,77.14
2018-03-08T06:31:13.528Z,76.29
2018-03-08T06:32:13.682Z,76.29
2018-03-08T06:33:13.833Z,75.81
2018-03-08T06:34:13.982Z,75.81
2018-03-08T06:35:14.136Z,76.39
2018-03-08T06:36:14.280Z,76.29
2018-03-08T06:37:14.438Z,76.29
2018-03-08T06:38:14.588Z,76.29
2018-03-08T06:39:14.731Z,76.57
2018-03-08T06:40:14.875Z,76.39
2018-03-08T06:41:15.029Z,76.29
2018-03-08T06:42:15.346Z,75.91
2018-03-08T06:43:15.392Z,75.81
2018-03-08T06:44:15.540Z,76.29
2018-03-08T06:45:15.689Z,76.48
2018-03-08T06:46:15.840Z,76.39
2018-03-08T06:47:15.992Z,77.05
2018-03-08T06:48:16.145Z,76.86
2018-03-08T06:49:16.294Z,76.39
2018-03-08T06:50:16.451Z,76.76
2018-03-08T06:51:16.591Z,76.67
2018-03-08T06:52:16.748Z,77.24
2018-03-08T06:53:16.890Z,76.76
2018-03-08T06:54:17.040Z,77.33
2018-03-08T06:55:17.216Z,76.86
2018-03-08T06:56:17.370Z,77.05
2018-03-08T06:57:17.520Z,76.57
2018-03-08T06:58:17.674Z,76.86
2018-03-08T06:59:17.825Z,76.57
2018-03-08T07:00:17.971Z,76.76
2018-03-08T07:01:18.120Z,76.20
2018-03-08T07:02:18.277Z,76.48
2018-03-08T07:03:18.665Z,76.86
2018-03-08T07:04:18.576Z,76.67
2018-03-08T07:05:18.724Z,76.39
2018-03-08T07:06:18.874Z,76.10
2018-03-08T07:07:19.024Z,76.67
2018-03-08T07:08:19.179Z,76.57
2018-03-08T07:09:19.331Z,76.39
2018-03-08T07:10:19.479Z,76.20
2018-03-08T07:11:19.625Z,76.01
2018-03-08T07:12:19.800Z,76.39
2018-03-08T07:13:19.920Z,76.39
2018-03-08T07:14:20.073Z,76.10
2018-03-08T07:15:20.242Z,76.57
2018-03-08T07:16:20.374Z,76.57
2018-03-08T07:17:20.527Z,77.05
2018-03-08T07:18:20.673Z,77.05
2018-03-08T07:19:20.828Z,77.05
2018-03-08T07:20:20.982Z,77.90
2018-03-08T07:21:21.120Z,76.95
2018-03-08T07:22:21.269Z,77.52
2018-03-08T07:23:21.423Z,77.43
2018-03-08T07:24:21.623Z,77.05
2018-03-08T07:25:21.725Z,77.24
2018-03-08T07:26:21.878Z,76.76
2018-03-08T07:27:22.027Z,77.52
2018-03-08T07:28:22.177Z,77.05
2018-03-08T07:29:22.332Z,77.05
2018-03-08T07:30:22.480Z,77.05
2018-03-08T07:31:22.641Z,77.24
2018-03-08T07:32:22.782Z,77.14
2018-03-08T07:33:22.930Z,77.52
2018-03-08T07:34:23.084Z,77.81
2018-03-08T07:35:23.230Z,77.24
2018-03-08T07:36:23.384Z,76.76
2018-03-08T07:37:23.534Z,76.86
2018-03-08T07:38:23.691Z,76.32
2018-03-08T07:39:23.836Z,76.32
2018-03-08T07:40:23.985Z,75.95
2018-03-08T07:41:24.144Z,75.85
2018-03-08T07:42:24.284Z,75.85
2018-03-08T07:43:24.435Z,75.38
2018-03-08T07:44:24.579Z,75.47
2018-03-08T07:45:24.731Z,75.38
2018-03-08T07:46:24.885Z,75.67
2018-03-08T07:47:25.034Z,75.38
2018-03-08T07:48:25.185Z,75.19
2018-03-08T07:49:25.336Z,74.90
2018-03-08T07:50:25.491Z,74.43
2018-03-08T07:51:25.639Z,74.08
2018-03-08T07:52:25.793Z,74.27
2018-03-08T07:53:25.942Z,74.37
2018-03-08T07:54:26.091Z,74.18
2018-03-08T07:55:26.246Z,73.61
2018-03-08T07:56:26.396Z,72.99
2018-03-08T07:57:26.550Z,70.83
2018-03-08T07:58:26.702Z,68.84
2018-03-08T07:59:26.852Z,68.21
2018-03-08T08:00:27.002Z,68.01
2018-03-08T08:01:27.149Z,65.83
2018-03-08T08:02:27.302Z,66.14
2018-03-08T08:03:27.459Z,65.10
2018-03-08T08:04:27.603Z,64.90
2018-03-08T08:05:27.772Z,65.00
2018-03-08T08:06:27.887Z,64.34
2018-03-08T08:07:28.036Z,65.00
2018-03-08T08:08:28.175Z,65.19
2018-03-08T08:09:28.328Z,65.38
2018-03-08T08:10:28.495Z,65.19
2018-03-08T08:11:28.635Z,64.62
2018-03-08T08:12:28.794Z,64.53
2018-03-08T08:13:28.938Z,65.06
2018-03-08T08:14:29.093Z,66.30
2018-03-08T08:15:29.245Z,66.02
2018-03-08T08:16:29.399Z,66.78
2018-03-08T08:17:29.554Z,66.49
2018-03-08T08:18:29.711Z,66.55
2018-03-08T08:19:29.863Z,67.50
2018-03-08T08:20:30.014Z,68.17
2018-03-08T08:21:30.166Z,69.18
2018-03-08T08:22:30.321Z,69.94
2018-03-08T08:23:30.471Z,69.94
2018-03-08T08:24:30.620Z,69.66
2018-03-08T08:25:30.772Z,69.56
2018-03-08T08:26:30.941Z,69.12
2018-03-08T08:27:31.073Z,68.17
2018-03-08T08:28:31.230Z,67.50
2018-03-08T08:29:31.386Z,67.76
2018-03-08T08:30:31.536Z,68.27
2018-03-08T08:31:31.690Z,66.39
2018-03-08T08:32:31.840Z,65.64
2018-03-08T08:33:31.989Z,65.10
2018-03-08T08:34:32.151Z,65.45
2018-03-08T08:35:32.592Z,66.20
2018-03-08T08:36:32.450Z,66.55
2018-03-08T08:37:32.591Z,66.55
2018-03-08T08:38:32.754Z,67.60
2018-03-08T08:39:32.916Z,67.60
2018-03-08T08:40:33.065Z,68.07
2018-03-08T08:41:33.211Z,68.17
2018-03-08T08:42:33.362Z,68.36
2018-03-08T08:43:33.523Z,68.07
2018-03-08T08:44:33.666Z,67.98
2018-03-08T08:45:33.819Z,67.98
2018-03-08T08:46:33.972Z,68.27
2018-03-08T08:47:34.128Z,68.74
2018-03-08T08:48:34.281Z,68.17
2018-03-08T08:49:34.432Z,68.07
2018-03-08T08:50:34.591Z,68.42
2018-03-08T08:51:34.746Z,69.18
2018-03-08T08:52:34.886Z,69.46
2018-03-08T08:53:35.038Z,69.56
2018-03-08T08:54:35.246Z,69.94
2018-03-08T08:55:35.343Z,69.66
2018-03-08T08:56:35.488Z,69.75
2018-03-08T08:57:35.636Z,70.19
2018-03-08T08:58:35.789Z,69.94
2018-03-08T08:59:35.937Z,70.29
2018-03-08T09:00:36.092Z,71.08
2018-03-08T09:01:36.246Z,70.29
2018-03-08T09:02:36.395Z,71.43
2018-03-08T09:03:36.550Z,71.27
2018-03-08T09:04:36.698Z,71.27
2018-03-08T09:05:36.850Z,71.27
2018-03-08T09:06:37.001Z,70.42
2018-03-08T09:07:37.204Z,69.88
2018-03-08T09:08:37.308Z,69.21
2018-03-08T09:09:37.452Z,68.84
2018-03-08T09:10:37.606Z,68.17
2018-03-08T09:11:37.758Z,68.17
2018-03-08T09:12:37.924Z,68.55
2018-03-08T09:13:38.062Z,68.07
2018-03-08T09:14:38.211Z,67.54
2018-03-08T09:16:38.510Z,66.84
2018-03-08T09:17:38.658Z,66.78
2018-03-08T09:18:38.812Z,66.68
2018-03-08T09:19:38.963Z,66.78
2018-03-08T09:20:39.114Z,66.87
2018-03-08T09:21:39.268Z,67.07
2018-03-08T09:22:39.423Z,66.20
2018-03-08T09:23:39.572Z,66.11
2018-03-08T09:24:39.723Z,66.11
2018-03-08T09:25:39.879Z,65.86
2018-03-08T09:26:40.036Z,64.90
2018-03-08T09:27:40.197Z,65.10
2018-03-08T09:28:40.344Z,65.06
2018-03-08T09:29:40.493Z,65.35
2018-03-08T09:30:40.650Z,65.64
2018-03-08T09:31:40.798Z,65.83
2018-03-08T09:32:40.950Z,65.73
2018-03-08T09:33:41.104Z,66.20
2018-03-08T09:34:41.256Z,66.94
2018-03-08T09:35:41.407Z,66.94
2018-03-08T09:36:41.562Z,67.03
2018-03-08T09:37:41.714Z,67.32
2018-03-08T09:38:41.874Z,67.98
2018-03-08T09:39:42.019Z,68.46
2018-03-08T09:40:42.179Z,68.55
2018-03-08T09:41:42.323Z,68.46
2018-03-08T09:42:42.476Z,68.27
2018-03-08T09:43:42.629Z,68.07
2018-03-08T09:44:42.777Z,68.46
2018-03-08T09:45:42.932Z,68.07
2018-03-08T09:46:43.085Z,68.36
2018-03-08T09:47:43.235Z,67.50
2018-03-08T09:48:43.396Z,67.98
2018-03-08T09:49:43.538Z,68.17
2018-03-08T09:50:43.693Z,68.07
2018-03-08T09:51:43.848Z,67.88
2018-03-08T09:52:43.995Z,68.07
2018-03-08T09:53:44.146Z,67.32
2018-03-08T09:54:44.297Z,66.59
2018-03-08T09:55:44.454Z,66.11
2018-03-08T09:56:44.616Z,65.86
2018-03-08T09:57:44.770Z,65.10
2018-03-08T09:58:44.917Z,63.57
2018-03-08T09:59:45.066Z,63.48
2018-03-08T10:00:45.218Z,63.86
2018-03-08T10:01:45.371Z,63.20
2018-03-08T10:02:45.524Z,63.48
2018-03-08T10:03:45.681Z,63.32
2018-03-08T10:04:45.834Z,62.97
2018-03-08T10:05:45.988Z,61.35
2018-03-08T10:06:46.140Z,60.97
2018-03-08T10:07:46.307Z,60.69
2018-03-08T10:08:46.457Z,60.88
2018-03-08T10:09:46.603Z,60.59
2018-03-08T10:10:46.767Z,59.92
2018-03-08T10:11:46.911Z,60.30
2018-03-08T10:12:47.094Z,60.02
2018-03-08T10:13:47.219Z,60.27
2018-03-08T10:14:47.377Z,60.85
2018-03-08T10:15:47.528Z,62.08
2018-03-08T10:16:47.681Z,62.18
2018-03-08T10:17:47.837Z,63.01
2018-03-08T10:18:47.985Z,63.39
2018-03-08T10:19:48.142Z,63.39
2018-03-08T10:20:48.547Z,63.20
2018-03-08T10:21:48.451Z,63.01
2018-03-08T10:22:48.641Z,63.20
2018-03-08T10:23:48.763Z,63.29
2018-03-08T10:24:48.919Z,63.29
2018-03-08T10:25:49.058Z,63.10
2018-03-08T10:26:49.212Z,63.32
2018-03-08T10:27:49.364Z,62.75
2018-03-08T10:28:49.520Z,62.91
2018-03-08T10:29:49.673Z,63.01
2018-03-08T10:30:49.829Z,63.10
2018-03-08T10:31:49.980Z,63.10
2018-03-08T10:32:50.131Z,63.10
2018-03-08T10:33:50.284Z,62.85
2018-03-08T10:34:50.439Z,62.65
2018-03-08T10:35:50.590Z,62.56
2018-03-08T10:36:50.745Z,61.90
2018-03-08T10:37:50.898Z,61.80
2018-03-08T10:38:51.053Z,61.61
2018-03-08T10:39:51.201Z,61.61
2018-03-08T10:40:51.355Z,61.22
2018-03-08T10:41:51.509Z,61.42
2018-03-08T10:42:51.665Z,61.61
2018-03-08T10:43:51.817Z,61.32
2018-03-08T10:44:51.971Z,61.61
2018-03-08T10:45:52.129Z,61.13
2018-03-08T10:46:52.279Z,60.56
2018-03-08T10:47:52.427Z,61.13
2018-03-08T10:49:52.735Z,61.22
2018-03-08T10:50:52.886Z,61.13
2018-03-08T10:51:53.051Z,61.22
2018-03-08T10:52:53.196Z,61.13
2018-03-08T10:53:53.350Z,61.13
2018-03-08T10:54:53.509Z,61.13
2018-03-08T10:55:53.667Z,61.51
2018-03-08T10:56:53.819Z,61.61
2018-03-08T10:57:53.975Z,61.32
2018-03-08T10:58:54.127Z,60.94
2018-03-08T10:59:54.278Z,61.04
2018-03-08T11:00:54.439Z,60.27
2018-03-08T11:01:54.590Z,60.46
2018-03-08T11:02:54.747Z,59.99
2018-03-08T11:03:54.900Z,60.37
2018-03-08T11:04:55.047Z,60.08
2018-03-08T11:05:55.213Z,60.75
2018-03-08T11:06:55.357Z,60.46
2018-03-08T11:07:55.510Z,59.80
2018-03-08T11:08:55.664Z,59.99
2018-03-08T11:09:55.822Z,59.70
2018-03-08T11:10:55.975Z,59.23
2018-03-08T11:11:56.128Z,59.61
2018-03-08T11:12:56.279Z,59.13
2018-03-08T11:13:56.431Z,59.23
2018-03-08T11:14:56.585Z,59.42
2018-03-08T11:15:56.740Z,59.26
2018-03-08T11:16:56.894Z,59.06
2018-03-08T11:17:57.041Z,58.37
2018-03-08T11:18:57.199Z,58.50
2018-03-08T11:19:57.360Z,58.59
2018-03-08T11:20:57.509Z,58.18
2018-03-08T11:21:57.670Z,58.47
2018-03-08T11:22:57.811Z,57.80
2018-03-08T11:23:58.213Z,57.26
2018-03-08T11:24:58.117Z,57.54
2018-03-08T11:25:58.272Z,56.90
2018-03-08T11:26:58.425Z,55.47
2018-03-08T11:27:58.588Z,55.31
2018-03-08T11:28:58.731Z,54.74
2018-03-08T11:29:58.892Z,53.02
2018-03-08T11:30:59.038Z,52.64
2018-03-08T11:31:59.194Z,52.64
2018-03-08T11:32:59.345Z,52.83
2018-03-08T11:33:59.502Z,53.12
2018-03-08T11:34:59.656Z,53.69
2018-03-08T11:35:59.811Z,53.95
2018-03-08T11:36:59.970Z,54.71
2018-03-08T11:38:00.118Z,55.19
2018-03-08T11:39:00.278Z,55.09
2018-03-08T11:40:00.434Z,56.40
2018-03-08T11:41:01.791Z,56.78
2018-03-08T11:42:00.732Z,56.85
2018-03-08T11:43:00.894Z,57.32
2018-03-08T11:44:01.043Z,57.80
2018-03-08T11:45:01.194Z,57.64
2018-03-08T11:46:01.347Z,57.82
2018-03-08T11:47:02.212Z,57.26
2018-03-08T11:48:01.678Z,57.19
2018-03-08T11:49:01.797Z,56.62
2018-03-08T11:50:01.950Z,55.88
2018-03-08T11:51:02.155Z,55.21
2018-03-08T11:52:02.266Z,55.12
2018-03-08T11:53:02.411Z,55.53
2018-03-08T11:54:02.566Z,54.96
2018-03-08T11:55:02.728Z,54.26
2018-03-08T11:56:02.864Z,55.02
2018-03-08T11:57:03.023Z,55.66
2018-03-08T11:58:03.178Z,56.87
2018-03-08T11:59:03.335Z,57.89
2018-03-08T12:00:03.491Z,58.84
2018-03-08T12:01:03.642Z,59.70
2018-03-08T12:02:03.798Z,59.42
2018-03-08T12:03:03.947Z,59.51
2018-03-08T12:04:04.099Z,59.42
2018-03-08T12:05:04.262Z,59.32
2018-03-08T12:06:04.406Z,59.23
2018-03-08T12:07:04.557Z,59.99
2018-03-08T12:08:04.713Z,60.27
2018-03-08T12:09:04.865Z,60.37
2018-03-08T12:10:05.020Z,59.06
2018-03-08T12:11:05.222Z,58.30
2018-03-08T12:12:05.330Z,57.67
2018-03-08T12:13:05.483Z,57.48
2018-03-08T12:14:05.633Z,56.90
2018-03-08T12:15:05.788Z,57.35
2018-03-08T12:16:05.936Z,57.16
2018-03-08T12:17:06.137Z,58.11
2018-03-08T12:18:06.243Z,58.69
2018-03-08T12:19:06.651Z,58.65
2018-03-08T12:20:06.555Z,59.70
2018-03-08T12:21:06.713Z,59.23
2018-03-08T12:22:06.860Z,60.18
2018-03-08T12:23:07.016Z,60.08
2018-03-08T12:24:07.160Z,60.94
2018-03-08T12:25:07.316Z,61.22
2018-03-08T12:26:07.471Z,61.32
2018-03-08T12:27:07.622Z,60.75
2018-03-08T12:28:07.826Z,60.56
2018-03-08T12:29:08.169Z,59.89
2018-03-08T12:30:08.088Z,60.27
2018-03-08T12:31:08.496Z,59.89
2018-03-08T12:32:08.388Z,59.99
2018-03-08T12:33:08.546Z,59.80
2018-03-08T12:34:08.703Z,59.99
2018-03-08T12:35:08.851Z,60.27
2018-03-08T12:36:09.020Z,60.27
2018-03-08T12:37:09.169Z,59.89
2018-03-08T12:38:09.317Z,59.70
2018-03-08T12:39:09.470Z,59.51
2018-03-08T12:40:09.622Z,59.99
2018-03-08T12:42:09.925Z,60.37
2018-03-08T12:43:10.090Z,60.27
2018-03-08T12:44:10.231Z,61.04
2018-03-08T12:45:10.386Z,61.13
2018-03-08T12:46:10.542Z,61.04
2018-03-08T12:47:10.699Z,61.13
2018-03-08T12:48:10.852Z,61.13
2018-03-08T12:49:10.994Z,61.04
2018-03-08T12:50:11.150Z,61.22
2018-03-08T12:51:11.307Z,61.42
2018-03-08T12:52:11.458Z,61.04
2018-03-08T12:53:11.602Z,61.51
2018-03-08T12:54:11.756Z,61.42
2018-03-08T12:55:11.915Z,61.51
2018-03-08T12:57:12.213Z,61.51
2018-03-08T12:58:12.364Z,61.32
2018-03-08T12:59:12.553Z,61.51
2018-03-08T13:00:12.671Z,61.13
2018-03-08T13:01:12.830Z,61.42
2018-03-08T13:02:12.982Z,61.70
2018-03-08T13:03:13.136Z,61.99